createdAt,value
2018-12-25T00:02:57.375Z,8.83
2018-12-25T00:07:53.392Z,9.47
2018-12-25T00:12:49.416Z,8.00
2018-12-25T00:17:45.626Z,8.97
2018-12-25T00:22:42.921Z,9.53
2018-12-25T00:28:01.065Z,9.40
2018-12-25T00:32:57.183Z,8.93
2018-12-25T00:37:53.204Z,9.27
2018-12-25T00:42:49.350Z,9.60
2018-12-25T00:47:46.424Z,9.40
2018-12-25T00:52:42.607Z,11.00
2018-12-25T00:57:38.868Z,9.57
2018-12-25T01:02:34.892Z,8.80
2018-12-25T01:07:30.922Z,8.27
2018-12-25T01:12:27.146Z,9.50
2018-12-25T01:17:23.264Z,9.43
2018-12-25T01:22:19.334Z,9.80
2018-12-25T01:27:15.407Z,9.00
2018-12-25T01:32:11.396Z,9.73
2018-12-25T01:37:07.419Z,9.40
2018-12-25T01:42:03.435Z,8.47
2018-12-25T01:46:59.451Z,9.27
2018-12-25T01:51:55.470Z,7.90
2018-12-25T01:56:51.586Z,9.67
2018-12-25T02:01:47.811Z,8.30
2018-12-25T02:06:43.957Z,9.20
2018-12-25T02:11:39.984Z,8.43
2018-12-25T02:16:35.991Z,8.70
2018-12-25T02:21:32.110Z,8.57
2018-12-25T02:26:28.128Z,7.77
2018-12-25T02:31:24.140Z,8.23
2018-12-25T02:36:20.164Z,7.70
2018-12-25T02:41:16.180Z,8.30
2018-12-25T02:46:12.188Z,9.00
2018-12-25T02:51:08.204Z,8.10
2018-12-25T02:56:04.215Z,8.50
2018-12-25T03:01:00.229Z,7.80
2018-12-25T03:05:56.245Z,8.00
2018-12-25T03:10:52.260Z,7.20
2018-12-25T03:15:48.271Z,6.90
2018-12-25T03:20:44.286Z,7.60
2018-12-25T03:25:40.306Z,7.80
2018-12-25T03:30:36.328Z,6.87
2018-12-25T03:35:32.327Z,6.97
2018-12-25T03:40:28.346Z,7.60
2018-12-25T03:45:24.370Z,7.77
2018-12-25T03:50:20.386Z,7.30
2018-12-25T03:55:16.401Z,7.23
2018-12-25T04:00:12.419Z,7.10
2018-12-25T04:05:08.434Z,7.73
2018-12-25T04:10:04.451Z,7.00
2018-12-25T04:15:00.471Z,7.13
2018-12-25T04:19:56.516Z,7.90
2018-12-25T04:24:52.536Z,6.90
2018-12-25T04:29:48.550Z,7.10
2018-12-25T04:34:44.576Z,6.80
2018-12-25T04:39:40.593Z,7.10
2018-12-25T04:44:36.616Z,6.53
2018-12-25T04:49:32.633Z,6.50
2018-12-25T04:54:28.650Z,6.60
2018-12-25T04:59:24.667Z,6.13
2018-12-25T05:04:20.690Z,6.10
2018-12-25T05:09:16.706Z,7.10
2018-12-25T05:14:12.722Z,6.80
2018-12-25T05:19:08.738Z,5.60
2018-12-25T05:24:04.758Z,6.97
2018-12-25T05:29:00.775Z,7.30
2018-12-25T05:33:56.902Z,6.27
2018-12-25T05:38:52.912Z,7.00
2018-12-25T05:43:48.936Z,6.07
2018-12-25T05:48:44.958Z,6.50
2018-12-25T05:53:40.966Z,6.73
2018-12-25T05:58:37.727Z,6.80
2018-12-25T06:03:33.706Z,6.10
2018-12-25T06:08:29.723Z,6.33
2018-12-25T06:13:25.757Z,6.70
2018-12-25T06:18:21.759Z,6.50
2018-12-25T06:23:17.952Z,6.73
2018-12-25T06:28:14.676Z,7.03
2018-12-25T06:33:10.655Z,7.50
2018-12-25T06:38:06.673Z,7.27
2018-12-25T06:43:02.694Z,6.87
2018-12-25T06:47:58.715Z,6.03
2018-12-25T06:52:54.732Z,6.50
2018-12-25T06:58:32.712Z,6.90
2018-12-25T07:03:28.783Z,6.57
2018-12-25T07:08:24.813Z,6.70
2018-12-25T07:13:20.854Z,7.03
2018-12-25T07:18:16.891Z,6.70
2018-12-25T07:23:13.044Z,7.13
2018-12-25T07:28:09.743Z,7.00
2018-12-25T07:33:05.761Z,7.70
2018-12-25T07:38:01.798Z,7.20
2018-12-25T07:42:57.840Z,7.90
2018-12-25T07:47:53.988Z,7.87
2018-12-25T07:52:50.012Z,6.60
2018-12-25T07:57:47.044Z,7.07
2018-12-25T08:02:43.184Z,6.93
2018-12-25T08:07:39.219Z,7.70
2018-12-25T08:12:35.279Z,8.50
2018-12-25T08:17:31.395Z,8.07
2018-12-25T08:22:35.119Z,8.30
2018-12-25T08:27:32.627Z,8.77
2018-12-25T08:32:28.842Z,8.13
2018-12-25T08:37:24.872Z,9.00
2018-12-25T08:42:20.960Z,9.03
2018-12-25T08:47:17.119Z,9.10
2018-12-25T08:52:13.138Z,8.60
2018-12-25T08:57:09.187Z,9.43
2018-12-25T09:02:05.271Z,10.03
2018-12-25T09:07:01.295Z,10.00
2018-12-25T09:11:57.340Z,10.30
2018-12-25T09:16:53.856Z,8.73
2018-12-25T09:21:49.969Z,9.37
2018-12-25T09:26:46.120Z,9.67
2018-12-25T09:31:42.145Z,9.93
2018-12-25T09:36:38.266Z,10.30
2018-12-25T09:41:34.336Z,9.10
2018-12-25T09:46:30.358Z,9.23
2018-12-25T09:51:26.449Z,8.70
2018-12-25T09:56:22.479Z,8.70
2018-12-25T10:01:18.522Z,8.53
2018-12-25T10:06:14.603Z,8.37
2018-12-25T10:11:10.814Z,9.37
2018-12-25T10:16:06.864Z,8.90
2018-12-25T10:21:03.156Z,8.90
2018-12-25T10:25:59.180Z,8.40
2018-12-25T10:31:15.811Z,9.77
2018-12-25T10:36:11.863Z,8.97
2018-12-25T10:41:07.923Z,9.70
2018-12-25T10:46:04.197Z,8.93
2018-12-25T10:51:00.438Z,8.53
2018-12-25T10:55:56.487Z,7.80
2018-12-25T11:00:52.530Z,6.93
2018-12-25T11:05:49.343Z,6.67
2018-12-25T11:11:27.522Z,7.20
2018-12-25T11:16:24.964Z,5.90
2018-12-25T11:21:21.929Z,6.30
2018-12-25T11:26:18.885Z,5.73
2018-12-25T11:31:20.657Z,6.43
2018-12-25T11:36:38.718Z,6.07
2018-12-25T11:41:35.644Z,3.77
2018-12-25T11:57:11.159Z,7.10
2018-12-25T12:07:16.839Z,6.77
2018-12-25T12:12:13.899Z,6.97
2018-12-25T12:17:52.061Z,5.30
2018-12-25T12:22:49.013Z,7.47
2018-12-25T12:27:46.176Z,7.30
2018-12-25T12:32:43.470Z,6.97
2018-12-25T12:37:40.795Z,8.13
2018-12-25T12:48:01.578Z,5.50
2018-12-25T12:52:58.921Z,9.37
2018-12-25T13:03:21.819Z,8.20
2018-12-25T13:08:18.107Z,5.30
2018-12-25T13:13:14.310Z,7.23
2018-12-25T13:18:10.504Z,5.43
2018-12-25T13:23:27.131Z,7.80
2018-12-25T13:28:43.707Z,7.00
2018-12-25T13:33:40.324Z,7.33
2018-12-25T13:38:56.532Z,8.33
2018-12-25T13:43:52.998Z,8.47
2018-12-25T13:48:49.090Z,5.83
2018-12-25T13:59:24.828Z,7.13
2018-12-25T14:04:08.394Z,6.60
2018-12-25T14:09:46.150Z,6.27
2018-12-25T14:14:42.366Z,5.70
2018-12-25T14:19:38.460Z,2.90
2018-12-25T14:24:35.407Z,5.70
2018-12-25T14:34:35.204Z,5.90
2018-12-25T14:39:32.667Z,6.30
2018-12-25T14:44:29.509Z,5.70
2018-12-25T14:49:26.678Z,5.10
2018-12-25T14:54:22.877Z,7.30
2018-12-25T14:59:20.053Z,8.20
2018-12-25T15:04:16.917Z,8.23
2018-12-25T15:09:16.290Z,3.53
2018-12-25T15:19:37.866Z,9.03
2018-12-25T15:24:34.725Z,9.60
2018-12-25T15:29:51.648Z,8.03
2018-12-25T15:34:51.087Z,8.93
2018-12-25T15:50:36.486Z,10.97
2018-12-25T15:55:33.969Z,10.50
2018-12-25T16:00:32.063Z,11.67
2018-12-25T16:05:30.556Z,11.40
2018-12-25T16:11:08.649Z,10.43
2018-12-25T16:16:06.248Z,11.73
2018-12-25T16:21:05.868Z,12.47
2018-12-25T16:26:44.039Z,11.57
2018-12-25T16:31:41.047Z,15.37
2018-12-25T16:36:38.083Z,11.90
2018-12-25T16:41:35.098Z,11.70
2018-12-25T16:51:34.911Z,9.77
2018-12-25T16:56:31.027Z,12.37
2018-12-25T17:01:27.043Z,13.00
2018-12-25T17:06:23.055Z,9.10
2018-12-25T17:11:19.092Z,10.30
2018-12-25T17:16:15.087Z,14.00
2018-12-25T17:21:11.107Z,11.70
2018-12-25T17:26:07.122Z,13.73
2018-12-25T17:31:03.139Z,10.67
2018-12-25T17:35:59.156Z,13.80
2018-12-25T17:40:55.179Z,16.40
2018-12-25T17:45:51.203Z,17.40
2018-12-25T17:50:47.223Z,16.30
2018-12-25T17:55:43.245Z,15.70
2018-12-25T18:00:39.329Z,16.07
2018-12-25T18:05:35.356Z,11.50
2018-12-25T18:10:31.376Z,17.97
2018-12-25T18:20:31.271Z,18.37
2018-12-25T18:25:49.673Z,15.63
2018-12-25T18:30:46.456Z,16.33
2018-12-25T18:35:43.179Z,11.40
2018-12-25T18:40:59.599Z,13.80
2018-12-25T18:56:43.398Z,13.93
2018-12-25T19:01:42.307Z,12.47
2018-12-25T19:06:39.534Z,14.13
2018-12-25T19:12:17.644Z,14.00
2018-12-25T19:27:41.667Z,9.60
2018-12-25T19:32:43.723Z,12.67
2018-12-25T19:37:37.693Z,13.83
2018-12-25T19:42:54.290Z,13.17
2018-12-25T19:48:11.146Z,14.77
2018-12-25T19:53:07.662Z,16.70
2018-12-25T19:58:26.763Z,10.80
2018-12-25T20:04:04.936Z,16.23
2018-12-25T20:15:11.698Z,12.37
2018-12-25T20:20:48.279Z,17.70
2018-12-25T20:26:25.021Z,18.10
2018-12-25T20:32:01.130Z,17.30
2018-12-25T20:37:39.592Z,11.70
2018-12-25T20:43:15.350Z,16.80
2018-12-25T20:48:51.108Z,14.30
2018-12-25T20:54:28.762Z,14.43
2018-12-25T21:00:06.422Z,15.47
2018-12-25T21:05:42.178Z,10.17
2018-12-25T21:11:17.934Z,17.67
2018-12-25T21:16:55.679Z,9.37
2018-12-25T21:22:13.477Z,9.27
2018-12-25T21:27:29.758Z,16.33
2018-12-25T21:32:25.899Z,19.07
2018-12-25T21:37:22.041Z,16.70
2018-12-25T21:42:18.179Z,12.40
2018-12-25T21:47:14.298Z,11.27
2018-12-25T21:52:10.426Z,14.07
2018-12-25T21:57:07.121Z,11.37
2018-12-25T22:02:03.154Z,12.33
2018-12-25T22:06:59.167Z,13.20
2018-12-25T22:11:55.186Z,12.10
2018-12-25T22:16:51.204Z,15.40
2018-12-25T22:21:47.221Z,16.47
2018-12-25T22:26:43.349Z,11.53
2018-12-25T22:31:39.355Z,10.97
2018-12-25T22:36:35.415Z,16.63
2018-12-25T22:41:31.457Z,15.80
2018-12-25T22:46:27.477Z,11.07
2018-12-25T22:51:23.494Z,10.33
2018-12-25T22:56:19.615Z,14.17
2018-12-25T23:01:15.703Z,13.90
2018-12-25T23:06:11.714Z,15.07
2018-12-25T23:11:07.828Z,15.43
2018-12-25T23:16:03.846Z,12.03
2018-12-25T23:20:59.916Z,14.03
2018-12-25T23:25:55.930Z,13.33
2018-12-25T23:30:51.954Z,11.67
2018-12-25T23:35:47.963Z,10.07
2018-12-25T23:40:43.977Z,13.73
2018-12-25T23:45:40.004Z,12.90
2018-12-25T23:50:36.019Z,11.97
2018-12-25T23:55:32.038Z,13.93
